createdAt,value
2018-07-31T00:02:10.242Z,94686.34
2018-07-31T00:04:39.108Z,94685.53
2018-07-31T00:07:07.927Z,94686.06
2018-07-31T00:09:36.747Z,94685.54
2018-07-31T00:12:05.597Z,94684.47
2018-07-31T00:14:34.398Z,94686.07
2018-07-31T00:17:03.258Z,94690.08
2018-07-31T00:19:32.073Z,94697.28
2018-07-31T00:22:01.296Z,94702.86
2018-07-31T00:24:30.196Z,94702.35
2018-07-31T00:26:59.026Z,94709.55
2018-07-31T00:29:27.799Z,94698.59
2018-07-31T00:31:56.585Z,94696.97
2018-07-31T00:34:25.417Z,94707.39
2018-07-31T00:36:54.403Z,94713.53
2018-07-31T00:39:23.190Z,94713.81
2018-07-31T00:41:51.956Z,94714.61
2018-07-31T00:44:20.766Z,94708.47
2018-07-31T00:46:49.581Z,94714.89
2018-07-31T00:49:18.436Z,94715.95
2018-07-31T00:51:47.383Z,94715.92
2018-07-31T00:54:16.270Z,94714.35
2018-07-31T00:56:45.151Z,94714.60
2018-07-31T00:59:13.969Z,94713.78
2018-07-31T01:01:42.812Z,94705.52
2018-07-31T01:04:11.559Z,94706.05
2018-07-31T01:06:42.318Z,94702.58
2018-07-31T01:09:12.509Z,94703.12
2018-07-31T01:11:41.422Z,94706.30
2018-07-31T01:14:10.842Z,94697.49
2018-07-31T01:16:41.271Z,94695.06
2018-07-31T01:19:11.093Z,94691.86
2018-07-31T01:21:40.383Z,94693.70
2018-07-31T01:24:09.820Z,94691.56
2018-07-31T01:26:38.576Z,94683.83
2018-07-31T01:29:07.386Z,94685.96
2018-07-31T01:31:36.562Z,94684.09
2018-07-31T01:34:05.475Z,94695.86
2018-07-31T01:36:34.279Z,94696.13
2018-07-31T01:39:03.095Z,94684.92
2018-07-31T01:41:31.944Z,94683.32
2018-07-31T01:44:00.705Z,94682.28
2018-07-31T01:46:29.611Z,94676.97
2018-07-31T01:48:58.377Z,94681.20
2018-07-31T01:51:27.198Z,94678.55
2018-07-31T01:53:55.965Z,94671.88
2018-07-31T01:56:24.793Z,94674.80
2018-07-31T01:58:53.527Z,94674.03
2018-07-31T02:01:22.317Z,94673.23
2018-07-31T02:03:51.228Z,94667.36
2018-07-31T02:06:24.340Z,94669.77
2018-07-31T02:08:53.777Z,94667.12
2018-07-31T02:11:22.593Z,94667.41
2018-07-31T02:13:51.933Z,94666.60
2018-07-31T02:16:20.724Z,94671.11
2018-07-31T02:18:49.637Z,94669.25
2018-07-31T02:21:18.466Z,94667.63
2018-07-31T02:23:47.249Z,94663.59
2018-07-31T02:26:16.070Z,94659.63
2018-07-31T02:28:44.897Z,94663.59
2018-07-31T02:31:14.212Z,94667.07
2018-07-31T02:33:43.020Z,94666.00
2018-07-31T02:36:12.638Z,94669.47
2018-07-31T02:38:41.475Z,94671.63
2018-07-31T02:41:10.354Z,94666.83
2018-07-31T02:43:39.146Z,94682.03
2018-07-31T02:46:08.031Z,94678.30
2018-07-31T02:48:36.938Z,94677.77
2018-07-31T02:51:05.761Z,94681.47
2018-07-31T02:53:34.593Z,94690.58
2018-07-31T02:56:03.345Z,94692.17
2018-07-31T02:58:33.726Z,94682.30
2018-07-31T03:01:02.628Z,94683.92
2018-07-31T03:03:31.526Z,94680.72
2018-07-31T03:06:00.423Z,94683.09
2018-07-31T03:08:29.200Z,94684.98
2018-07-31T03:10:57.963Z,94691.68
2018-07-31T03:13:26.866Z,94685.52
2018-07-31T03:15:55.620Z,94690.34
2018-07-31T03:18:24.484Z,94687.41
2018-07-31T03:20:53.445Z,94680.75
2018-07-31T03:23:22.247Z,94683.69
2018-07-31T03:25:51.027Z,94687.42
2018-07-31T03:28:19.844Z,94691.12
2018-07-31T03:30:48.823Z,94692.98
2018-07-31T03:33:17.610Z,94693.25
2018-07-31T03:35:46.422Z,94695.38
2018-07-31T03:38:20.612Z,94697.25
2018-07-31T03:41:00.660Z,94706.05
2018-07-31T03:43:33.313Z,94706.63
2018-07-31T03:46:02.113Z,94713.54
2018-07-31T03:48:30.912Z,94711.41
2018-07-31T03:50:59.786Z,94715.95
2018-07-31T03:53:28.581Z,94719.69
2018-07-31T03:55:57.406Z,94715.40
2018-07-31T03:58:26.305Z,94717.28
2018-07-31T04:00:55.181Z,94726.06
2018-07-31T04:03:23.999Z,94732.20
2018-07-31T04:05:52.793Z,94736.22
2018-07-31T04:08:21.745Z,94740.48
2018-07-31T04:10:50.721Z,94736.75
2018-07-31T04:13:19.481Z,94734.34
2018-07-31T04:15:48.643Z,94740.20
2018-07-31T04:18:17.413Z,94735.14
2018-07-31T04:20:46.291Z,94737.24
2018-07-31T04:23:15.134Z,94734.31
2018-07-31T04:25:43.951Z,94733.80
2018-07-31T04:28:12.743Z,94739.12
2018-07-31T04:30:41.509Z,94738.05
2018-07-31T04:33:10.279Z,94744.45
2018-07-31T04:35:39.189Z,94740.20
2018-07-31T04:38:08.038Z,94751.14
2018-07-31T04:40:36.789Z,94749.52
2018-07-31T04:43:05.937Z,94752.46
2018-07-31T04:45:35.062Z,94746.31
2018-07-31T04:48:03.857Z,94753.26
2018-07-31T04:50:32.665Z,94757.27
2018-07-31T04:53:01.483Z,94754.05
2018-07-31T04:55:30.316Z,94747.09
2018-07-31T04:57:59.209Z,94751.36
2018-07-31T05:00:28.050Z,94751.38
2018-07-31T05:02:56.903Z,94751.63
2018-07-31T05:05:25.665Z,94750.05
2018-07-31T05:07:54.510Z,94754.84
2018-07-31T05:10:23.318Z,94752.17
2018-07-31T05:12:52.148Z,94757.78
2018-07-31T05:15:20.949Z,94753.25
2018-07-31T05:17:49.843Z,94756.72
2018-07-31T05:20:19.205Z,94757.49
2018-07-31T05:22:48.090Z,94755.09
2018-07-31T05:25:17.069Z,94758.83
2018-07-31T05:27:46.239Z,94761.23
2018-07-31T05:30:15.170Z,94757.78
2018-07-31T05:32:44.040Z,94763.41
2018-07-31T05:35:13.010Z,94759.64
2018-07-31T05:37:41.819Z,94766.88
2018-07-31T05:40:11.022Z,94755.66
2018-07-31T05:42:39.893Z,94756.48
2018-07-31T05:45:08.857Z,94759.16
2018-07-31T05:47:37.974Z,94759.94
2018-07-31T05:50:07.876Z,94758.34
2018-07-31T05:52:37.180Z,94766.08
2018-07-31T05:55:06.439Z,94763.94
2018-07-31T05:57:35.915Z,94759.94
2018-07-31T06:00:06.954Z,94760.99
2018-07-31T06:02:35.771Z,94762.05
2018-07-31T06:05:05.010Z,94751.38
2018-07-31T06:07:33.814Z,94756.16
2018-07-31T06:10:02.660Z,94762.02
2018-07-31T06:12:31.598Z,94754.48
2018-07-31T06:15:00.361Z,94762.50
2018-07-31T06:17:29.194Z,94760.56
2018-07-31T06:19:58.233Z,94762.39
2018-07-31T06:22:27.219Z,94766.97
2018-07-31T06:24:56.417Z,94766.47
2018-07-31T06:27:25.323Z,94769.11
2018-07-31T06:29:54.193Z,94763.94
2018-07-31T06:32:24.089Z,94765.21
2018-07-31T06:34:52.840Z,94761.78
2018-07-31T06:37:21.650Z,94767.52
2018-07-31T06:39:50.491Z,94768.23
2018-07-31T06:42:19.321Z,94764.72
2018-07-31T06:44:48.093Z,94769.12
2018-07-31T06:47:16.915Z,94777.53
2018-07-31T06:49:45.882Z,94779.58
2018-07-31T06:52:14.694Z,94770.69
2018-07-31T06:54:43.682Z,94776.52
2018-07-31T06:57:12.493Z,94776.45
2018-07-31T06:59:41.361Z,94777.30
2018-07-31T07:02:10.423Z,94777.40
2018-07-31T07:04:39.464Z,94779.11
2018-07-31T07:07:08.421Z,94776.29
2018-07-31T07:09:37.351Z,94777.84
2018-07-31T07:12:06.222Z,94779.28
2018-07-31T07:14:35.070Z,94768.58
2018-07-31T07:17:03.821Z,94771.52
2018-07-31T07:19:32.581Z,94769.09
2018-07-31T07:22:01.413Z,94768.33
2018-07-31T07:24:30.230Z,94773.00
2018-07-31T07:26:59.057Z,94772.37
2018-07-31T07:29:27.924Z,94777.05
2018-07-31T07:31:56.739Z,94769.97
2018-07-31T07:34:25.666Z,94773.65
2018-07-31T07:36:54.509Z,94773.53
2018-07-31T07:39:23.771Z,94768.31
2018-07-31T07:41:55.686Z,94774.52
2018-07-31T07:44:24.549Z,94775.03
2018-07-31T07:46:53.358Z,94779.82
2018-07-31T07:49:22.193Z,94774.56
2018-07-31T07:51:51.035Z,94778.80
2018-07-31T07:54:19.848Z,94772.19
2018-07-31T07:56:49.121Z,94778.42
2018-07-31T07:59:17.944Z,94775.53
2018-07-31T08:01:46.843Z,94775.42
2018-07-31T08:04:15.694Z,94778.45
2018-07-31T08:06:44.534Z,94779.55
2018-07-31T08:09:13.338Z,94785.31
2018-07-31T08:11:42.187Z,94781.85
2018-07-31T08:14:10.909Z,94777.89
2018-07-31T08:16:39.717Z,94778.94
2018-07-31T08:19:08.566Z,94779.94
2018-07-31T08:21:37.586Z,94774.55
2018-07-31T08:24:06.421Z,94780.23
2018-07-31T08:26:35.462Z,94780.47
2018-07-31T08:29:04.395Z,94779.09
2018-07-31T08:34:10.171Z,94776.78
2018-07-31T08:36:39.008Z,94776.41
2018-07-31T08:39:09.469Z,94781.11
2018-07-31T08:41:38.370Z,94778.05
2018-07-31T08:44:07.418Z,94776.23
2018-07-31T08:46:36.412Z,94774.29
2018-07-31T08:49:05.252Z,94777.58
2018-07-31T08:51:34.019Z,94769.95
2018-07-31T08:54:02.803Z,94765.13
2018-07-31T08:56:31.718Z,94768.33
2018-07-31T08:59:00.510Z,94763.03
2018-07-31T09:01:29.259Z,94752.41
2018-07-31T09:03:58.087Z,94752.78
2018-07-31T09:06:27.023Z,94752.16
2018-07-31T09:08:55.908Z,94752.23
2018-07-31T09:11:24.898Z,94749.34
2018-07-31T09:13:53.678Z,94746.12
2018-07-31T09:16:22.573Z,94738.64
2018-07-31T09:18:51.394Z,94744.91
2018-07-31T09:21:20.208Z,94748.91
2018-07-31T09:23:48.985Z,94747.03
2018-07-31T09:26:17.739Z,94744.48
2018-07-31T09:28:46.603Z,94739.58
2018-07-31T09:31:15.514Z,94737.11
2018-07-31T09:33:44.501Z,94742.08
2018-07-31T09:36:13.283Z,94743.95
2018-07-31T09:38:42.081Z,94747.14
2018-07-31T09:41:10.883Z,94740.58
2018-07-31T09:43:39.708Z,94744.16
2018-07-31T09:46:08.529Z,94748.78
2018-07-31T09:48:37.767Z,94737.44
2018-07-31T09:51:06.902Z,94740.02
2018-07-31T09:53:35.689Z,94738.44
2018-07-31T09:56:04.509Z,94740.00
2018-07-31T09:58:33.274Z,94733.65
2018-07-31T10:01:07.442Z,94736.60
2018-07-31T10:03:36.243Z,94723.17
2018-07-31T10:06:05.408Z,94718.25
2018-07-31T10:08:34.205Z,94715.66
2018-07-31T10:11:03.059Z,94718.44
2018-07-31T10:13:32.262Z,94718.61
2018-07-31T10:16:01.028Z,94713.60
2018-07-31T10:18:29.835Z,94719.55
2018-07-31T10:20:58.590Z,94715.86
2018-07-31T10:23:27.363Z,94715.36
2018-07-31T10:25:56.545Z,94710.61
2018-07-31T10:28:25.298Z,94707.59
2018-07-31T10:30:54.263Z,94715.09
2018-07-31T10:33:23.571Z,94716.55
2018-07-31T10:35:52.366Z,94709.95
2018-07-31T10:38:21.176Z,94708.11
2018-07-31T10:40:49.968Z,94711.11
2018-07-31T10:43:18.758Z,94704.00
2018-07-31T10:45:47.609Z,94707.92
2018-07-31T10:48:16.690Z,94711.97
2018-07-31T10:50:45.500Z,94704.32
2018-07-31T10:53:14.437Z,94702.30
2018-07-31T10:55:43.545Z,94695.06
2018-07-31T10:58:12.408Z,94699.41
2018-07-31T11:00:41.333Z,94702.95
2018-07-31T11:03:10.250Z,94699.65
2018-07-31T11:05:39.659Z,94697.56
2018-07-31T11:08:08.469Z,94691.99
2018-07-31T11:10:37.376Z,94693.03
2018-07-31T11:13:06.261Z,94688.92
2018-07-31T11:15:35.661Z,94689.57
2018-07-31T11:18:04.469Z,94684.91
2018-07-31T11:20:33.209Z,94686.30
2018-07-31T11:23:02.163Z,94689.00
2018-07-31T11:25:31.053Z,94683.76
2018-07-31T11:28:00.286Z,94694.64
2018-07-31T11:30:29.149Z,94695.26
2018-07-31T11:32:57.958Z,94692.67
2018-07-31T11:35:27.058Z,94695.14
2018-07-31T11:37:55.850Z,94689.94
2018-07-31T11:40:24.595Z,94687.67
2018-07-31T11:42:53.433Z,94685.64
2018-07-31T11:45:22.253Z,94689.93
2018-07-31T11:47:51.068Z,94683.82
2018-07-31T11:50:19.906Z,94692.82
2018-07-31T11:52:48.721Z,94694.28
2018-07-31T11:55:17.880Z,94693.53
2018-07-31T11:57:46.677Z,94693.55
2018-07-31T12:00:15.969Z,94689.08
2018-07-31T12:02:45.683Z,94685.83
2018-07-31T12:05:15.202Z,94693.11
2018-07-31T12:07:44.077Z,94686.03
2018-07-31T12:10:12.890Z,94682.95
2018-07-31T12:12:43.698Z,94684.34
2018-07-31T12:15:12.507Z,94675.59
2018-07-31T12:17:41.317Z,94678.42
2018-07-31T12:20:10.118Z,94680.28
2018-07-31T12:22:38.897Z,94686.88
2018-07-31T12:25:07.697Z,94698.17
2018-07-31T12:27:36.514Z,94700.80
2018-07-31T12:30:09.478Z,94705.97
2018-07-31T12:32:38.509Z,94718.14
2018-07-31T12:35:07.506Z,94713.20
2018-07-31T12:37:36.303Z,94709.77
2018-07-31T12:40:06.069Z,94699.65
2018-07-31T12:42:41.418Z,94700.14
2018-07-31T12:45:10.201Z,94694.06
2018-07-31T12:47:38.988Z,94696.76
2018-07-31T12:50:07.895Z,94696.22
2018-07-31T12:52:36.841Z,94695.53
2018-07-31T12:55:05.674Z,94708.32
2018-07-31T12:57:34.474Z,94700.45
2018-07-31T13:00:04.903Z,94716.33
2018-07-31T13:02:34.019Z,94720.14
2018-07-31T13:05:02.778Z,94721.54
2018-07-31T13:07:31.602Z,94721.97
2018-07-31T13:10:00.374Z,94732.82
2018-07-31T13:12:29.109Z,94732.93
2018-07-31T13:14:58.213Z,94732.64
2018-07-31T13:17:27.049Z,94731.31
2018-07-31T13:19:55.778Z,94747.70
2018-07-31T13:22:24.602Z,94752.48
2018-07-31T13:24:53.781Z,94761.58
2018-07-31T13:27:22.561Z,94760.67
2018-07-31T13:29:51.321Z,94767.13
2018-07-31T13:32:20.135Z,94765.15
2018-07-31T13:34:48.942Z,94768.53
2018-07-31T13:37:17.798Z,94770.83
2018-07-31T13:39:46.816Z,94769.18
2018-07-31T13:42:15.649Z,94774.55
2018-07-31T13:44:44.474Z,94770.67
2018-07-31T13:47:13.267Z,94765.00
2018-07-31T13:49:42.087Z,94767.21
2018-07-31T13:52:10.927Z,94767.97
2018-07-31T13:54:39.749Z,94766.50
2018-07-31T13:57:08.951Z,94766.86
2018-07-31T13:59:38.427Z,94759.72
2018-07-31T14:02:09.523Z,94763.73
2018-07-31T14:04:38.820Z,94754.73
2018-07-31T14:07:07.746Z,94755.42
2018-07-31T14:09:36.700Z,94755.88
2018-07-31T14:12:05.466Z,94754.65
2018-07-31T14:14:34.266Z,94754.76
2018-07-31T14:17:03.419Z,94741.59
2018-07-31T14:19:32.257Z,94743.93
2018-07-31T14:22:01.177Z,94745.34
2018-07-31T14:24:30.478Z,94751.92
2018-07-31T14:26:59.401Z,94751.25
2018-07-31T14:29:28.226Z,94752.50
2018-07-31T14:31:57.307Z,94755.95
2018-07-31T14:34:26.253Z,94753.11
2018-07-31T14:36:55.517Z,94766.23
2018-07-31T14:39:24.336Z,94769.55
2018-07-31T14:41:55.950Z,94769.35
2018-07-31T14:44:31.477Z,94773.20
2018-07-31T14:47:00.298Z,94778.25
2018-07-31T14:49:35.722Z,94784.59
2018-07-31T14:52:04.509Z,94784.92
2018-07-31T14:54:33.783Z,94783.66
2018-07-31T14:57:02.599Z,94776.61
2018-07-31T14:59:31.422Z,94780.97
2018-07-31T15:02:00.446Z,94772.95
2018-07-31T15:04:29.377Z,94777.44
2018-07-31T15:06:59.280Z,94778.20
2018-07-31T15:09:28.137Z,94776.69
2018-07-31T15:11:57.011Z,94784.47
2018-07-31T15:14:25.832Z,94789.25
2018-07-31T15:16:54.634Z,94784.14
2018-07-31T15:19:23.533Z,94788.08
2018-07-31T15:21:52.717Z,94791.97
2018-07-31T15:24:21.511Z,94782.13
2018-07-31T15:26:50.409Z,94781.98
2018-07-31T15:29:19.163Z,94779.65
2018-07-31T15:31:48.005Z,94778.79
2018-07-31T15:34:16.837Z,94780.80
2018-07-31T15:36:45.609Z,94775.58
2018-07-31T15:39:14.629Z,94777.34
2018-07-31T15:41:44.063Z,94772.20
2018-07-31T15:44:12.888Z,94777.45
2018-07-31T15:46:42.772Z,94776.92
2018-07-31T15:49:11.946Z,94775.34
2018-07-31T15:54:26.869Z,94772.02
2018-07-31T15:56:56.998Z,94770.93
2018-07-31T15:59:25.883Z,94767.70
2018-07-31T16:01:54.686Z,94766.25
2018-07-31T16:04:26.820Z,94769.23
2018-07-31T16:06:56.409Z,94770.02
2018-07-31T16:09:25.200Z,94770.88
2018-07-31T16:11:54.121Z,94767.45
2018-07-31T16:14:22.895Z,94768.28
2018-07-31T16:16:51.698Z,94762.91
2018-07-31T16:19:20.556Z,94759.30
2018-07-31T16:21:49.362Z,94760.71
2018-07-31T16:24:18.150Z,94762.91
2018-07-31T16:26:46.949Z,94767.67
2018-07-31T16:29:17.668Z,94756.20
2018-07-31T16:31:46.535Z,94756.01
2018-07-31T16:34:15.779Z,94754.16
2018-07-31T16:36:44.657Z,94762.55
2018-07-31T16:39:13.434Z,94760.27
2018-07-31T16:41:42.679Z,94760.50
2018-07-31T16:44:11.678Z,94759.39
2018-07-31T16:46:41.485Z,94762.73
2018-07-31T16:49:10.290Z,94759.59
2018-07-31T16:51:40.268Z,94764.75
2018-07-31T16:54:09.158Z,94764.02
2018-07-31T16:56:37.977Z,94765.13
2018-07-31T16:59:06.938Z,94764.23
2018-07-31T17:01:35.761Z,94776.89
2018-07-31T17:04:04.625Z,94773.75
2018-07-31T17:06:33.397Z,94775.34
2018-07-31T17:09:04.528Z,94771.86
2018-07-31T17:11:33.615Z,94766.01
2018-07-31T17:14:02.464Z,94773.17
2018-07-31T17:16:31.307Z,94777.73
2018-07-31T17:19:00.084Z,94784.97
2018-07-31T17:21:28.885Z,94787.94
2018-07-31T17:23:57.925Z,94782.31
2018-07-31T17:26:26.866Z,94789.81
2018-07-31T17:28:55.738Z,94795.99
2018-07-31T17:31:24.550Z,94802.31
2018-07-31T17:33:53.696Z,94803.88
2018-07-31T17:36:22.556Z,94805.61
2018-07-31T17:38:51.438Z,94808.84
2018-07-31T17:41:20.658Z,94814.53
2018-07-31T17:43:49.495Z,94812.20
2018-07-31T17:46:18.400Z,94808.31
2018-07-31T17:48:47.605Z,94819.92
2018-07-31T17:51:16.453Z,94826.16
2018-07-31T17:53:46.014Z,94826.75
2018-07-31T17:56:15.216Z,94825.16
2018-07-31T17:58:44.498Z,94829.48
2018-07-31T18:01:13.375Z,94830.82
2018-07-31T18:03:42.306Z,94832.92
2018-07-31T18:06:11.341Z,94834.52
2018-07-31T18:08:40.201Z,94833.50
2018-07-31T18:11:08.966Z,94836.72
2018-07-31T18:13:37.746Z,94842.59
2018-07-31T18:16:06.760Z,94850.67
2018-07-31T18:18:35.706Z,94859.82
2018-07-31T18:21:04.527Z,94862.73
2018-07-31T18:23:33.478Z,94871.61
2018-07-31T18:26:02.446Z,94873.00
2018-07-31T18:28:31.292Z,94877.07
2018-07-31T18:31:00.151Z,94876.31
2018-07-31T18:33:28.981Z,94866.69
2018-07-31T18:35:57.814Z,94862.18
2018-07-31T18:38:26.619Z,94857.67
2018-07-31T18:40:55.451Z,94869.67
2018-07-31T18:43:24.418Z,94869.41
2018-07-31T18:45:53.222Z,94873.72
2018-07-31T18:48:28.446Z,94872.42
2018-07-31T18:50:57.251Z,94873.19
2018-07-31T18:53:26.490Z,94876.16
2018-07-31T18:55:55.398Z,94874.02
2018-07-31T18:58:24.543Z,94866.54
2018-07-31T19:00:53.916Z,94869.48
2018-07-31T19:03:23.006Z,94867.61
2018-07-31T19:05:51.841Z,94862.27
2018-07-31T19:08:20.644Z,94857.19
2018-07-31T19:10:49.441Z,94852.38
2018-07-31T19:13:18.331Z,94855.58
2018-07-31T19:15:47.377Z,94855.88
2018-07-31T19:18:16.264Z,94862.30
2018-07-31T19:20:45.083Z,94860.19
2018-07-31T19:23:13.950Z,94863.39
2018-07-31T19:25:42.896Z,94855.11
2018-07-31T19:28:11.892Z,94860.77
2018-07-31T19:30:40.850Z,94864.78
2018-07-31T19:33:09.753Z,94858.36
2018-07-31T19:35:38.980Z,94855.69
2018-07-31T19:38:08.012Z,94851.95
2018-07-31T19:40:36.924Z,94851.95
2018-07-31T19:43:07.636Z,94862.38
2018-07-31T19:45:36.481Z,94866.67
2018-07-31T19:48:05.377Z,94868.78
2018-07-31T19:50:34.399Z,94864.80
2018-07-31T19:53:03.201Z,94863.73
2018-07-31T19:55:32.023Z,94861.31
2018-07-31T19:58:00.815Z,94859.20
2018-07-31T20:00:29.717Z,94865.08
2018-07-31T20:02:58.522Z,94856.53
2018-07-31T20:05:27.365Z,94861.06
2018-07-31T20:07:56.226Z,94861.36
2018-07-31T20:10:25.019Z,94864.03
2018-07-31T20:12:54.085Z,94859.20
2018-07-31T20:15:22.991Z,94858.95
2018-07-31T20:20:19.738Z,94870.95
2018-07-31T20:22:48.522Z,94872.02
2018-07-31T20:25:17.341Z,94865.60
2018-07-31T20:27:46.134Z,94866.14
2018-07-31T20:30:14.917Z,94856.53
2018-07-31T20:32:44.139Z,94859.45
2018-07-31T20:35:12.923Z,94861.31
2018-07-31T20:37:41.721Z,94868.81
2018-07-31T20:40:10.580Z,94868.27
2018-07-31T20:42:39.408Z,94863.48
2018-07-31T20:45:08.747Z,94858.94
2018-07-31T20:47:37.898Z,94861.86
2018-07-31T20:50:07.107Z,94867.72
2018-07-31T20:52:42.307Z,94867.73
2018-07-31T20:55:11.158Z,94876.55
2018-07-31T20:57:39.973Z,94882.97
2018-07-31T21:00:09.311Z,94880.30
2018-07-31T21:02:38.150Z,94877.88
2018-07-31T21:05:07.459Z,94881.88
2018-07-31T21:07:36.348Z,94886.67
2018-07-31T21:10:05.326Z,94891.23
2018-07-31T21:12:34.114Z,94900.58
2018-07-31T21:15:03.001Z,94899.77
2018-07-31T21:17:31.786Z,94894.67
2018-07-31T21:20:00.635Z,94891.22
2018-07-31T21:22:29.559Z,94893.59
2018-07-31T21:24:58.327Z,94895.97
2018-07-31T21:27:27.098Z,94886.63
2018-07-31T21:29:55.847Z,94891.72
2018-07-31T21:32:24.673Z,94885.86
2018-07-31T21:34:53.495Z,94883.73
2018-07-31T21:37:22.288Z,94890.92
2018-07-31T21:39:51.059Z,94883.22
2018-07-31T21:42:19.927Z,94885.60
2018-07-31T21:44:49.031Z,94877.08
2018-07-31T21:47:17.806Z,94874.41
2018-07-31T21:49:46.700Z,94869.31
2018-07-31T21:52:15.559Z,94872.75
2018-07-31T21:54:44.464Z,94877.02
2018-07-31T21:57:13.278Z,94867.16
2018-07-31T21:59:42.101Z,94863.44
2018-07-31T22:02:11.078Z,94869.56
2018-07-31T22:04:39.927Z,94868.52
2018-07-31T22:07:09.130Z,94862.89
2018-07-31T22:09:43.647Z,94865.84
2018-07-31T22:12:12.646Z,94866.63
2018-07-31T22:14:42.419Z,94875.97
2018-07-31T22:17:11.226Z,94875.16
2018-07-31T22:19:41.010Z,94867.17
2018-07-31T22:22:09.842Z,94869.05
2018-07-31T22:24:38.710Z,94863.14
2018-07-31T22:27:07.607Z,94861.30
2018-07-31T22:29:36.362Z,94862.88
2018-07-31T22:32:05.219Z,94861.55
2018-07-31T22:34:33.982Z,94859.64
2018-07-31T22:37:02.776Z,94854.02
2018-07-31T22:39:31.566Z,94856.21
2018-07-31T22:42:00.349Z,94852.71
2018-07-31T22:44:29.112Z,94857.77
2018-07-31T22:46:57.963Z,94857.02
2018-07-31T22:49:26.760Z,94850.63
2018-07-31T22:51:55.554Z,94846.63
2018-07-31T22:54:24.318Z,94853.54
2018-07-31T22:56:53.095Z,94852.20
2018-07-31T22:59:21.874Z,94853.02
2018-07-31T23:01:50.734Z,94851.17
2018-07-31T23:04:19.491Z,94846.64
2018-07-31T23:06:48.330Z,94851.95
2018-07-31T23:09:17.152Z,94851.42
2018-07-31T23:11:46.293Z,94855.17
2018-07-31T23:14:15.106Z,94854.36
2018-07-31T23:16:44.099Z,94850.63
2018-07-31T23:19:12.887Z,94846.09
2018-07-31T23:21:41.663Z,94841.52
2018-07-31T23:24:10.463Z,94847.11
2018-07-31T23:26:39.237Z,94837.78
2018-07-31T23:29:08.063Z,94843.11
2018-07-31T23:31:36.920Z,94842.03
2018-07-31T23:34:05.753Z,94842.05
2018-07-31T23:36:34.552Z,94839.36
2018-07-31T23:39:04.778Z,94840.95
2018-07-31T23:41:33.557Z,94839.09
2018-07-31T23:44:02.347Z,94844.67
2018-07-31T23:46:31.162Z,94845.73
2018-07-31T23:48:59.944Z,94848.91
2018-07-31T23:51:28.729Z,94844.92
2018-07-31T23:53:57.531Z,94849.14
2018-07-31T23:56:26.380Z,94847.53
2018-07-31T23:58:55.146Z,94850.72
